sensor_id;sensor_type;location;lat;lon;timestamp;P1;durP1;ratioP1;P2;durP2;ratioP2
6642;SDS011;3357;48.050;7.800;2023-04-24T00:00:15;0.53;;;0.50;;
6642;SDS011;3357;48.050;7.800;2023-04-24T00:02:41;0.50;;;0.50;;
6642;SDS011;3357;48.050;7.800;2023-04-24T00:05:09;0.60;;;0.50;;
6642;SDS011;3357;48.050;7.800;2023-04-24T00:07:35;1.97;;;0.43;;
6642;SDS011;3357;48.050;7.800;2023-04-24T00:10:00;0.70;;;0.40;;
6642;SDS011;3357;48.050;7.800;2023-04-24T00:12:26;0.50;;;0.50;;
6642;SDS011;3357;48.050;7.800;2023-04-24T00:14:51;2.93;;;0.60;;
6642;SDS011;3357;48.050;7.800;2023-04-24T00:17:17;0.57;;;0.57;;
6642;SDS011;3357;48.050;7.800;2023-04-24T00:19:46;2.10;;;0.77;;
6642;SDS011;3357;48.050;7.800;2023-04-24T00:22:12;1.80;;;0.60;;
6642;SDS011;3357;48.050;7.800;2023-04-24T00:24:38;0.50;;;0.50;;
6642;SDS011;3357;48.050;7.800;2023-04-24T00:27:03;0.50;;;0.50;;
6642;SDS011;3357;48.050;7.800;2023-04-24T00:29:29;1.80;;;0.50;;
6642;SDS011;3357;48.050;7.800;2023-04-24T00:31:54;1.17;;;0.60;;
6642;SDS011;3357;48.050;7.800;2023-04-24T00:34:19;1.67;;;0.50;;
6642;SDS011;3357;48.050;7.800;2023-04-24T00:36:45;1.43;;;0.50;;
6642;SDS011;3357;48.050;7.800;2023-04-24T00:39:10;2.20;;;0.50;;
6642;SDS011;3357;48.050;7.800;2023-04-24T00:41:36;3.43;;;0.40;;
6642;SDS011;3357;48.050;7.800;2023-04-24T00:44:01;0.70;;;0.50;;
6642;SDS011;3357;48.050;7.800;2023-04-24T00:46:26;0.50;;;0.50;;
6642;SDS011;3357;48.050;7.800;2023-04-24T00:48:52;0.73;;;0.50;;
6642;SDS011;3357;48.050;7.800;2023-04-24T00:51:17;1.70;;;0.50;;
6642;SDS011;3357;48.050;7.800;2023-04-24T00:53:42;1.13;;;0.40;;
6642;SDS011;3357;48.050;7.800;2023-04-24T00:56:08;0.40;;;0.40;;
6642;SDS011;3357;48.050;7.800;2023-04-24T00:58:33;1.60;;;0.47;;
6642;SDS011;3357;48.050;7.800;2023-04-24T01:00:58;3.17;;;0.60;;
6642;SDS011;3357;48.050;7.800;2023-04-24T01:03:26;1.10;;;0.47;;
6642;SDS011;3357;48.050;7.800;2023-04-24T01:05:54;0.63;;;0.40;;
6642;SDS011;3357;48.050;7.800;2023-04-24T01:08:20;3.70;;;0.60;;
6642;SDS011;3357;48.050;7.800;2023-04-24T01:10:48;1.50;;;0.50;;
6642;SDS011;3357;48.050;7.800;2023-04-24T01:13:16;1.67;;;0.53;;
6642;SDS011;3357;48.050;7.800;2023-04-24T01:15:43;0.57;;;0.50;;
6642;SDS011;3357;48.050;7.800;2023-04-24T01:18:08;0.60;;;0.50;;
6642;SDS011;3357;48.050;7.800;2023-04-24T01:20:33;0.93;;;0.40;;
6642;SDS011;3357;48.050;7.800;2023-04-24T01:22:58;0.50;;;0.50;;
6642;SDS011;3357;48.050;7.800;2023-04-24T01:25:24;0.93;;;0.60;;
6642;SDS011;3357;48.050;7.800;2023-04-24T01:27:50;0.50;;;0.50;;
6642;SDS011;3357;48.050;7.800;2023-04-24T01:30:16;1.13;;;0.60;;
6642;SDS011;3357;48.050;7.800;2023-04-24T01:32:41;1.57;;;0.53;;
6642;SDS011;3357;48.050;7.800;2023-04-24T01:35:09;1.70;;;0.50;;
6642;SDS011;3357;48.050;7.800;2023-04-24T01:37:35;1.07;;;1.07;;
6642;SDS011;3357;48.050;7.800;2023-04-24T01:40:02;0.50;;;0.50;;
6642;SDS011;3357;48.050;7.800;2023-04-24T01:42:28;0.70;;;0.40;;
6642;SDS011;3357;48.050;7.800;2023-04-24T01:44:54;2.10;;;0.60;;
6642;SDS011;3357;48.050;7.800;2023-04-24T01:47:19;1.67;;;0.43;;
6642;SDS011;3357;48.050;7.800;2023-04-24T01:49:45;0.50;;;0.43;;
6642;SDS011;3357;48.050;7.800;2023-04-24T01:52:11;0.40;;;0.30;;
6642;SDS011;3357;48.050;7.800;2023-04-24T01:54:36;3.50;;;0.57;;
6642;SDS011;3357;48.050;7.800;2023-04-24T01:57:01;1.23;;;0.50;;
6642;SDS011;3357;48.050;7.800;2023-04-24T01:59:27;1.20;;;0.73;;
6642;SDS011;3357;48.050;7.800;2023-04-24T02:01:53;1.03;;;0.40;;
6642;SDS011;3357;48.050;7.800;2023-04-24T02:04:18;0.80;;;0.40;;
6642;SDS011;3357;48.050;7.800;2023-04-24T02:06:43;2.00;;;0.60;;
6642;SDS011;3357;48.050;7.800;2023-04-24T02:09:09;1.93;;;0.60;;
6642;SDS011;3357;48.050;7.800;2023-04-24T02:11:35;0.90;;;0.40;;
6642;SDS011;3357;48.050;7.800;2023-04-24T02:14:01;4.73;;;0.50;;
6642;SDS011;3357;48.050;7.800;2023-04-24T02:16:27;0.70;;;0.50;;
6642;SDS011;3357;48.050;7.800;2023-04-24T02:18:55;1.07;;;0.60;;
6642;SDS011;3357;48.050;7.800;2023-04-24T02:21:20;0.50;;;0.50;;
6642;SDS011;3357;48.050;7.800;2023-04-24T02:23:45;0.60;;;0.60;;
6642;SDS011;3357;48.050;7.800;2023-04-24T02:26:10;2.50;;;0.60;;
6642;SDS011;3357;48.050;7.800;2023-04-24T02:28:36;0.80;;;0.63;;
6642;SDS011;3357;48.050;7.800;2023-04-24T02:31:01;1.33;;;0.60;;
6642;SDS011;3357;48.050;7.800;2023-04-24T02:33:26;0.70;;;0.50;;
6642;SDS011;3357;48.050;7.800;2023-04-24T02:39:10;1.30;;;0.50;;
6642;SDS011;3357;48.050;7.800;2023-04-24T02:41:35;1.57;;;0.50;;
6642;SDS011;3357;48.050;7.800;2023-04-24T02:44:00;0.50;;;0.50;;
6642;SDS011;3357;48.050;7.800;2023-04-24T02:46:26;1.47;;;0.50;;
6642;SDS011;3357;48.050;7.800;2023-04-24T02:48:51;0.67;;;0.50;;
6642;SDS011;3357;48.050;7.800;2023-04-24T02:51:16;0.83;;;0.50;;
6642;SDS011;3357;48.050;7.800;2023-04-24T02:53:41;0.50;;;0.50;;
6642;SDS011;3357;48.050;7.800;2023-04-24T02:56:07;2.57;;;0.40;;
6642;SDS011;3357;48.050;7.800;2023-04-24T02:58:32;2.83;;;0.50;;
6642;SDS011;3357;48.050;7.800;2023-04-24T03:00:57;1.33;;;0.50;;
6642;SDS011;3357;48.050;7.800;2023-04-24T03:03:23;1.10;;;0.60;;
6642;SDS011;3357;48.050;7.800;2023-04-24T03:05:48;0.50;;;0.50;;
6642;SDS011;3357;48.050;7.800;2023-04-24T03:08:14;1.03;;;0.57;;
6642;SDS011;3357;48.050;7.800;2023-04-24T03:10:39;1.03;;;0.40;;
6642;SDS011;3357;48.050;7.800;2023-04-24T03:13:05;0.77;;;0.40;;
6642;SDS011;3357;48.050;7.800;2023-04-24T03:15:30;0.83;;;0.70;;
6642;SDS011;3357;48.050;7.800;2023-04-24T03:17:55;0.70;;;0.50;;
6642;SDS011;3357;48.050;7.800;2023-04-24T03:20:20;2.73;;;1.20;;
6642;SDS011;3357;48.050;7.800;2023-04-24T03:22:46;1.43;;;0.50;;
6642;SDS011;3357;48.050;7.800;2023-04-24T03:25:11;1.13;;;0.60;;
6642;SDS011;3357;48.050;7.800;2023-04-24T03:27:36;2.47;;;0.60;;
6642;SDS011;3357;48.050;7.800;2023-04-24T03:30:02;1.17;;;0.60;;
6642;SDS011;3357;48.050;7.800;2023-04-24T03:32:28;1.47;;;0.60;;
6642;SDS011;3357;48.050;7.800;2023-04-24T03:34:53;1.17;;;0.60;;
6642;SDS011;3357;48.050;7.800;2023-04-24T03:37:18;0.70;;;0.40;;
6642;SDS011;3357;48.050;7.800;2023-04-24T03:39:44;1.00;;;0.60;;
6642;SDS011;3357;48.050;7.800;2023-04-24T03:42:09;1.30;;;0.70;;
6642;SDS011;3357;48.050;7.800;2023-04-24T03:44:35;0.70;;;0.70;;
6642;SDS011;3357;48.050;7.800;2023-04-24T03:47:01;1.17;;;0.50;;
6642;SDS011;3357;48.050;7.800;2023-04-24T03:49:26;1.20;;;0.70;;
6642;SDS011;3357;48.050;7.800;2023-04-24T03:51:51;2.73;;;0.53;;
6642;SDS011;3357;48.050;7.800;2023-04-24T03:54:17;1.63;;;0.53;;
6642;SDS011;3357;48.050;7.800;2023-04-24T03:56:43;0.50;;;0.50;;
6642;SDS011;3357;48.050;7.800;2023-04-24T03:59:08;5.20;;;0.50;;
6642;SDS011;3357;48.050;7.800;2023-04-24T04:01:34;0.80;;;0.60;;
6642;SDS011;3357;48.050;7.800;2023-04-24T04:04:02;1.00;;;0.70;;
6642;SDS011;3357;48.050;7.800;2023-04-24T04:06:27;1.53;;;0.60;;
6642;SDS011;3357;48.050;7.800;2023-04-24T04:08:53;2.33;;;0.60;;
6642;SDS011;3357;48.050;7.800;2023-04-24T04:11:18;1.33;;;0.60;;
6642;SDS011;3357;48.050;7.800;2023-04-24T04:13:44;2.90;;;0.60;;
6642;SDS011;3357;48.050;7.800;2023-04-24T04:16:09;0.90;;;0.60;;
6642;SDS011;3357;48.050;7.800;2023-04-24T04:18:34;2.77;;;0.50;;
6642;SDS011;3357;48.050;7.800;2023-04-24T04:20:59;1.40;;;0.83;;
6642;SDS011;3357;48.050;7.800;2023-04-24T04:23:26;1.40;;;0.80;;
6642;SDS011;3357;48.050;7.800;2023-04-24T04:25:51;1.40;;;0.60;;
6642;SDS011;3357;48.050;7.800;2023-04-24T04:28:16;3.43;;;0.90;;
6642;SDS011;3357;48.050;7.800;2023-04-24T04:30:44;0.83;;;0.60;;
6642;SDS011;3357;48.050;7.800;2023-04-24T04:33:10;0.60;;;0.60;;
6642;SDS011;3357;48.050;7.800;2023-04-24T04:35:35;1.93;;;0.70;;
6642;SDS011;3357;48.050;7.800;2023-04-24T04:38:01;1.20;;;0.70;;
6642;SDS011;3357;48.050;7.800;2023-04-24T04:40:26;1.50;;;0.70;;
6642;SDS011;3357;48.050;7.800;2023-04-24T04:42:53;1.13;;;0.70;;
6642;SDS011;3357;48.050;7.800;2023-04-24T04:45:18;2.40;;;2.20;;
6642;SDS011;3357;48.050;7.800;2023-04-24T04:47:45;2.77;;;0.97;;
6642;SDS011;3357;48.050;7.800;2023-04-24T04:50:11;0.70;;;0.70;;
6642;SDS011;3357;48.050;7.800;2023-04-24T04:52:36;1.33;;;0.83;;
6642;SDS011;3357;48.050;7.800;2023-04-24T04:55:02;1.77;;;0.70;;
6642;SDS011;3357;48.050;7.800;2023-04-24T04:57:27;0.70;;;0.70;;
6642;SDS011;3357;48.050;7.800;2023-04-24T04:59:52;0.80;;;0.80;;
6642;SDS011;3357;48.050;7.800;2023-04-24T05:02:18;3.70;;;0.80;;
6642;SDS011;3357;48.050;7.800;2023-04-24T05:04:43;2.10;;;0.80;;
6642;SDS011;3357;48.050;7.800;2023-04-24T05:07:08;3.63;;;0.90;;
6642;SDS011;3357;48.050;7.800;2023-04-24T05:09:34;7.03;;;1.30;;
6642;SDS011;3357;48.050;7.800;2023-04-24T05:11:59;0.93;;;0.80;;
6642;SDS011;3357;48.050;7.800;2023-04-24T05:14:25;3.53;;;1.00;;
6642;SDS011;3357;48.050;7.800;2023-04-24T05:16:50;1.30;;;0.90;;
6642;SDS011;3357;48.050;7.800;2023-04-24T05:19:15;1.23;;;0.80;;
6642;SDS011;3357;48.050;7.800;2023-04-24T05:21:41;1.60;;;0.90;;
6642;SDS011;3357;48.050;7.800;2023-04-24T05:24:06;1.60;;;0.87;;
6642;SDS011;3357;48.050;7.800;2023-04-24T05:26:31;0.93;;;0.90;;
6642;SDS011;3357;48.050;7.800;2023-04-24T05:28:57;3.60;;;0.73;;
6642;SDS011;3357;48.050;7.800;2023-04-24T05:31:22;9.07;;;1.43;;
6642;SDS011;3357;48.050;7.800;2023-04-24T05:33:48;1.10;;;1.10;;
6642;SDS011;3357;48.050;7.800;2023-04-24T05:36:13;1.10;;;1.00;;
6642;SDS011;3357;48.050;7.800;2023-04-24T05:38:38;2.30;;;1.13;;
6642;SDS011;3357;48.050;7.800;2023-04-24T05:41:03;1.07;;;0.93;;
6642;SDS011;3357;48.050;7.800;2023-04-24T05:43:29;0.93;;;0.90;;
6642;SDS011;3357;48.050;7.800;2023-04-24T05:45:54;3.03;;;1.10;;
6642;SDS011;3357;48.050;7.800;2023-04-24T05:48:20;2.20;;;1.20;;
6642;SDS011;3357;48.050;7.800;2023-04-24T05:50:46;3.93;;;0.97;;
6642;SDS011;3357;48.050;7.800;2023-04-24T05:53:12;1.00;;;1.00;;
6642;SDS011;3357;48.050;7.800;2023-04-24T05:55:38;2.37;;;1.27;;
6642;SDS011;3357;48.050;7.800;2023-04-24T05:58:03;4.27;;;1.67;;
6642;SDS011;3357;48.050;7.800;2023-04-24T06:00:28;2.70;;;1.13;;
6642;SDS011;3357;48.050;7.800;2023-04-24T06:02:54;5.17;;;1.50;;
6642;SDS011;3357;48.050;7.800;2023-04-24T06:05:20;1.30;;;1.20;;
6642;SDS011;3357;48.050;7.800;2023-04-24T06:07:45;1.73;;;1.23;;
6642;SDS011;3357;48.050;7.800;2023-04-24T06:10:10;2.90;;;1.30;;
6642;SDS011;3357;48.050;7.800;2023-04-24T06:12:36;5.67;;;1.60;;
6642;SDS011;3357;48.050;7.800;2023-04-24T06:15:01;2.77;;;1.40;;
6642;SDS011;3357;48.050;7.800;2023-04-24T06:17:27;2.87;;;1.47;;
6642;SDS011;3357;48.050;7.800;2023-04-24T06:19:52;3.93;;;1.67;;
6642;SDS011;3357;48.050;7.800;2023-04-24T06:22:17;4.30;;;1.70;;
6642;SDS011;3357;48.050;7.800;2023-04-24T06:24:43;1.90;;;1.50;;
6642;SDS011;3357;48.050;7.800;2023-04-24T06:27:08;1.50;;;1.40;;
6642;SDS011;3357;48.050;7.800;2023-04-24T06:29:33;3.20;;;1.33;;
6642;SDS011;3357;48.050;7.800;2023-04-24T06:31:59;1.17;;;1.10;;
6642;SDS011;3357;48.050;7.800;2023-04-24T06:34:24;2.17;;;1.97;;
6642;SDS011;3357;48.050;7.800;2023-04-24T06:36:49;1.53;;;1.43;;
6642;SDS011;3357;48.050;7.800;2023-04-24T06:39:15;1.90;;;1.50;;
6642;SDS011;3357;48.050;7.800;2023-04-24T06:41:40;4.40;;;1.63;;
6642;SDS011;3357;48.050;7.800;2023-04-24T06:44:05;1.67;;;1.57;;
6642;SDS011;3357;48.050;7.800;2023-04-24T06:46:31;1.57;;;1.40;;
6642;SDS011;3357;48.050;7.800;2023-04-24T06:48:56;4.10;;;1.40;;
6642;SDS011;3357;48.050;7.800;2023-04-24T06:51:22;3.33;;;1.40;;
6642;SDS011;3357;48.050;7.800;2023-04-24T06:53:51;1.33;;;1.23;;
6642;SDS011;3357;48.050;7.800;2023-04-24T06:56:17;1.37;;;1.27;;
6642;SDS011;3357;48.050;7.800;2023-04-24T06:58:42;3.27;;;1.60;;
6642;SDS011;3357;48.050;7.800;2023-04-24T07:01:08;1.63;;;1.30;;
6642;SDS011;3357;48.050;7.800;2023-04-24T07:03:33;1.60;;;1.30;;
6642;SDS011;3357;48.050;7.800;2023-04-24T07:05:58;3.00;;;1.40;;
6642;SDS011;3357;48.050;7.800;2023-04-24T07:08:24;1.40;;;1.30;;
6642;SDS011;3357;48.050;7.800;2023-04-24T07:10:50;2.30;;;1.20;;
6642;SDS011;3357;48.050;7.800;2023-04-24T07:13:16;1.53;;;1.30;;
6642;SDS011;3357;48.050;7.800;2023-04-24T07:15:42;1.10;;;1.10;;
6642;SDS011;3357;48.050;7.800;2023-04-24T07:18:07;4.57;;;1.33;;
6642;SDS011;3357;48.050;7.800;2023-04-24T07:20:32;6.50;;;1.40;;
6642;SDS011;3357;48.050;7.800;2023-04-24T07:22:58;1.30;;;1.20;;
6642;SDS011;3357;48.050;7.800;2023-04-24T07:25:23;2.10;;;1.23;;
6642;SDS011;3357;48.050;7.800;2023-04-24T07:27:48;2.20;;;1.00;;
6642;SDS011;3357;48.050;7.800;2023-04-24T07:30:14;1.73;;;1.30;;
6642;SDS011;3357;48.050;7.800;2023-04-24T07:32:39;1.13;;;1.13;;
6642;SDS011;3357;48.050;7.800;2023-04-24T07:35:04;1.00;;;1.00;;
6642;SDS011;3357;48.050;7.800;2023-04-24T07:37:30;2.90;;;1.43;;
6642;SDS011;3357;48.050;7.800;2023-04-24T07:39:55;1.20;;;1.10;;
6642;SDS011;3357;48.050;7.800;2023-04-24T07:42:21;1.57;;;1.13;;
6642;SDS011;3357;48.050;7.800;2023-04-24T07:44:46;2.00;;;1.13;;
6642;SDS011;3357;48.050;7.800;2023-04-24T07:47:12;1.47;;;1.10;;
6642;SDS011;3357;48.050;7.800;2023-04-24T07:49:39;1.10;;;1.10;;
6642;SDS011;3357;48.050;7.800;2023-04-24T07:52:08;1.20;;;1.10;;
6642;SDS011;3357;48.050;7.800;2023-04-24T07:54:33;1.07;;;1.00;;
6642;SDS011;3357;48.050;7.800;2023-04-24T07:56:59;3.73;;;1.00;;
6642;SDS011;3357;48.050;7.800;2023-04-24T07:59:25;1.57;;;1.50;;
6642;SDS011;3357;48.050;7.800;2023-04-24T08:01:50;3.67;;;1.10;;
6642;SDS011;3357;48.050;7.800;2023-04-24T08:04:16;2.90;;;1.17;;
6642;SDS011;3357;48.050;7.800;2023-04-24T08:06:42;4.63;;;1.00;;
6642;SDS011;3357;48.050;7.800;2023-04-24T08:09:08;4.43;;;1.10;;
6642;SDS011;3357;48.050;7.800;2023-04-24T08:11:33;2.67;;;1.40;;
6642;SDS011;3357;48.050;7.800;2023-04-24T08:13:58;1.93;;;1.40;;
6642;SDS011;3357;48.050;7.800;2023-04-24T08:16:23;5.03;;;1.63;;
6642;SDS011;3357;48.050;7.800;2023-04-24T08:18:49;2.83;;;1.17;;
6642;SDS011;3357;48.050;7.800;2023-04-24T08:21:15;1.43;;;1.33;;
6642;SDS011;3357;48.050;7.800;2023-04-24T08:23:42;1.80;;;1.10;;
6642;SDS011;3357;48.050;7.800;2023-04-24T08:26:07;1.20;;;1.10;;
6642;SDS011;3357;48.050;7.800;2023-04-24T08:28:33;7.63;;;1.00;;
6642;SDS011;3357;48.050;7.800;2023-04-24T08:30:58;1.73;;;0.83;;
6642;SDS011;3357;48.050;7.800;2023-04-24T08:33:23;2.20;;;1.10;;
6642;SDS011;3357;48.050;7.800;2023-04-24T08:35:48;1.30;;;1.00;;
6642;SDS011;3357;48.050;7.800;2023-04-24T08:38:14;6.80;;;1.50;;
6642;SDS011;3357;48.050;7.800;2023-04-24T08:40:40;0.97;;;0.97;;
6642;SDS011;3357;48.050;7.800;2023-04-24T08:43:06;1.23;;;0.90;;
6642;SDS011;3357;48.050;7.800;2023-04-24T08:45:31;1.73;;;1.00;;
6642;SDS011;3357;48.050;7.800;2023-04-24T08:47:57;1.50;;;0.90;;
6642;SDS011;3357;48.050;7.800;2023-04-24T08:50:23;3.30;;;1.00;;
6642;SDS011;3357;48.050;7.800;2023-04-24T08:52:49;1.30;;;0.80;;
6642;SDS011;3357;48.050;7.800;2023-04-24T08:55:15;2.03;;;0.90;;
6642;SDS011;3357;48.050;7.800;2023-04-24T08:57:43;1.73;;;1.00;;
6642;SDS011;3357;48.050;7.800;2023-04-24T09:00:10;1.10;;;0.90;;
6642;SDS011;3357;48.050;7.800;2023-04-24T09:02:36;6.40;;;1.47;;
6642;SDS011;3357;48.050;7.800;2023-04-24T09:05:01;1.10;;;0.83;;
6642;SDS011;3357;48.050;7.800;2023-04-24T09:07:27;2.17;;;1.10;;
6642;SDS011;3357;48.050;7.800;2023-04-24T09:09:55;0.97;;;0.70;;
6642;SDS011;3357;48.050;7.800;2023-04-24T09:12:21;5.63;;;1.10;;
6642;SDS011;3357;48.050;7.800;2023-04-24T09:14:47;3.33;;;1.00;;
6642;SDS011;3357;48.050;7.800;2023-04-24T09:17:13;2.53;;;1.10;;
6642;SDS011;3357;48.050;7.800;2023-04-24T09:19:38;1.03;;;0.70;;
6642;SDS011;3357;48.050;7.800;2023-04-24T09:22:07;2.07;;;0.80;;
6642;SDS011;3357;48.050;7.800;2023-04-24T09:24:33;0.90;;;0.90;;
6642;SDS011;3357;48.050;7.800;2023-04-24T09:26:59;8.47;;;1.03;;
6642;SDS011;3357;48.050;7.800;2023-04-24T09:29:28;2.30;;;0.90;;
6642;SDS011;3357;48.050;7.800;2023-04-24T09:31:54;1.43;;;0.93;;
6642;SDS011;3357;48.050;7.800;2023-04-24T09:34:23;0.90;;;0.90;;
6642;SDS011;3357;48.050;7.800;2023-04-24T09:36:50;2.87;;;0.70;;
6642;SDS011;3357;48.050;7.800;2023-04-24T09:39:16;9.40;;;1.10;;
6642;SDS011;3357;48.050;7.800;2023-04-24T09:41:49;1.23;;;0.80;;
6642;SDS011;3357;48.050;7.800;2023-04-24T09:44:15;1.07;;;0.73;;
6642;SDS011;3357;48.050;7.800;2023-04-24T09:46:42;0.73;;;0.73;;
6642;SDS011;3357;48.050;7.800;2023-04-24T09:49:12;4.80;;;0.90;;
6642;SDS011;3357;48.050;7.800;2023-04-24T09:51:38;1.97;;;0.83;;
6642;SDS011;3357;48.050;7.800;2023-04-24T09:54:04;1.83;;;0.73;;
6642;SDS011;3357;48.050;7.800;2023-04-24T09:56:32;2.07;;;0.60;;
6642;SDS011;3357;48.050;7.800;2023-04-24T09:59:07;0.70;;;0.60;;
6642;SDS011;3357;48.050;7.800;2023-04-24T10:01:33;0.53;;;0.50;;
6642;SDS011;3357;48.050;7.800;2023-04-24T10:03:58;0.97;;;0.57;;
6642;SDS011;3357;48.050;7.800;2023-04-24T10:06:29;1.80;;;0.60;;
6642;SDS011;3357;48.050;7.800;2023-04-24T10:08:57;0.87;;;0.60;;
6642;SDS011;3357;48.050;7.800;2023-04-24T10:11:23;0.60;;;0.50;;
6642;SDS011;3357;48.050;7.800;2023-04-24T10:13:51;1.17;;;0.67;;
6642;SDS011;3357;48.050;7.800;2023-04-24T10:16:17;0.93;;;0.60;;
6642;SDS011;3357;48.050;7.800;2023-04-24T10:18:42;0.70;;;0.50;;
6642;SDS011;3357;48.050;7.800;2023-04-24T10:21:08;1.50;;;0.40;;
6642;SDS011;3357;48.050;7.800;2023-04-24T10:23:33;1.67;;;0.50;;
6642;SDS011;3357;48.050;7.800;2023-04-24T10:25:59;2.97;;;0.60;;
6642;SDS011;3357;48.050;7.800;2023-04-24T10:28:25;0.60;;;0.60;;
6642;SDS011;3357;48.050;7.800;2023-04-24T10:30:51;1.40;;;0.50;;
6642;SDS011;3357;48.050;7.800;2023-04-24T10:33:19;0.50;;;0.50;;
6642;SDS011;3357;48.050;7.800;2023-04-24T10:35:46;0.87;;;0.57;;
6642;SDS011;3357;48.050;7.800;2023-04-24T10:38:14;2.33;;;0.90;;
6642;SDS011;3357;48.050;7.800;2023-04-24T10:40:41;0.60;;;0.60;;
6642;SDS011;3357;48.050;7.800;2023-04-24T10:43:07;0.80;;;0.60;;
6642;SDS011;3357;48.050;7.800;2023-04-24T10:45:35;0.70;;;0.70;;
6642;SDS011;3357;48.050;7.800;2023-04-24T10:48:02;4.03;;;0.80;;
6642;SDS011;3357;48.050;7.800;2023-04-24T10:50:42;0.70;;;0.70;;
6642;SDS011;3357;48.050;7.800;2023-04-24T10:53:12;2.97;;;1.00;;
6642;SDS011;3357;48.050;7.800;2023-04-24T10:55:46;0.90;;;0.70;;
6642;SDS011;3357;48.050;7.800;2023-04-24T10:58:12;4.60;;;0.80;;
6642;SDS011;3357;48.050;7.800;2023-04-24T11:00:38;1.13;;;0.80;;
6642;SDS011;3357;48.050;7.800;2023-04-24T11:03:05;0.77;;;0.60;;
6642;SDS011;3357;48.050;7.800;2023-04-24T11:08:16;0.70;;;0.67;;
6642;SDS011;3357;48.050;7.800;2023-04-24T11:10:50;1.03;;;0.80;;
6642;SDS011;3357;48.050;7.800;2023-04-24T11:13:23;0.70;;;0.70;;
6642;SDS011;3357;48.050;7.800;2023-04-24T11:21:59;0.60;;;0.60;;
6642;SDS011;3357;48.050;7.800;2023-04-24T11:24:27;1.60;;;0.70;;
6642;SDS011;3357;48.050;7.800;2023-04-24T11:26:55;2.23;;;0.90;;
6642;SDS011;3357;48.050;7.800;2023-04-24T11:29:22;0.67;;;0.60;;
6642;SDS011;3357;48.050;7.800;2023-04-24T11:31:47;0.70;;;0.50;;
6642;SDS011;3357;48.050;7.800;2023-04-24T11:34:14;1.50;;;0.60;;
6642;SDS011;3357;48.050;7.800;2023-04-24T11:36:48;1.17;;;0.70;;
6642;SDS011;3357;48.050;7.800;2023-04-24T11:39:13;0.93;;;0.80;;
6642;SDS011;3357;48.050;7.800;2023-04-24T11:41:39;1.23;;;0.70;;
6642;SDS011;3357;48.050;7.800;2023-04-24T11:44:06;1.03;;;0.70;;
6642;SDS011;3357;48.050;7.800;2023-04-24T11:46:32;4.90;;;1.30;;
6642;SDS011;3357;48.050;7.800;2023-04-24T11:48:58;0.60;;;0.60;;
6642;SDS011;3357;48.050;7.800;2023-04-24T11:51:24;0.73;;;0.73;;
6642;SDS011;3357;48.050;7.800;2023-04-24T11:53:50;6.43;;;0.80;;
6642;SDS011;3357;48.050;7.800;2023-04-24T11:56:19;1.57;;;0.57;;
6642;SDS011;3357;48.050;7.800;2023-04-24T11:58:46;1.00;;;0.67;;
6642;SDS011;3357;48.050;7.800;2023-04-24T12:01:12;0.60;;;0.60;;
6642;SDS011;3357;48.050;7.800;2023-04-24T12:03:37;1.53;;;0.70;;
6642;SDS011;3357;48.050;7.800;2023-04-24T12:06:06;1.90;;;0.80;;
6642;SDS011;3357;48.050;7.800;2023-04-24T12:08:32;1.43;;;0.60;;
6642;SDS011;3357;48.050;7.800;2023-04-24T12:10:59;1.17;;;0.60;;
6642;SDS011;3357;48.050;7.800;2023-04-24T12:13:25;0.70;;;0.70;;
6642;SDS011;3357;48.050;7.800;2023-04-24T12:15:51;3.10;;;0.70;;
6642;SDS011;3357;48.050;7.800;2023-04-24T12:18:16;1.63;;;0.80;;
6642;SDS011;3357;48.050;7.800;2023-04-24T12:20:41;1.63;;;0.60;;
6642;SDS011;3357;48.050;7.800;2023-04-24T12:23:07;0.87;;;0.70;;
6642;SDS011;3357;48.050;7.800;2023-04-24T12:25:33;2.87;;;0.70;;
6642;SDS011;3357;48.050;7.800;2023-04-24T12:30:28;0.60;;;0.60;;
6642;SDS011;3357;48.050;7.800;2023-04-24T12:32:54;0.60;;;0.60;;
6642;SDS011;3357;48.050;7.800;2023-04-24T12:35:20;0.50;;;0.50;;
6642;SDS011;3357;48.050;7.800;2023-04-24T12:37:47;1.33;;;0.70;;
6642;SDS011;3357;48.050;7.800;2023-04-24T12:40:13;1.27;;;0.60;;
6642;SDS011;3357;48.050;7.800;2023-04-24T12:42:43;1.37;;;0.70;;
6642;SDS011;3357;48.050;7.800;2023-04-24T12:45:09;0.83;;;0.60;;
6642;SDS011;3357;48.050;7.800;2023-04-24T12:47:36;1.13;;;0.80;;
6642;SDS011;3357;48.050;7.800;2023-04-24T12:50:02;2.07;;;0.80;;
6642;SDS011;3357;48.050;7.800;2023-04-24T12:52:28;1.90;;;0.97;;
6642;SDS011;3357;48.050;7.800;2023-04-24T12:54:55;1.07;;;0.90;;
6642;SDS011;3357;48.050;7.800;2023-04-24T12:57:22;4.13;;;1.23;;
6642;SDS011;3357;48.050;7.800;2023-04-24T12:59:48;1.17;;;0.70;;
6642;SDS011;3357;48.050;7.800;2023-04-24T13:02:13;2.50;;;0.70;;
6642;SDS011;3357;48.050;7.800;2023-04-24T13:04:42;1.23;;;0.60;;
6642;SDS011;3357;48.050;7.800;2023-04-24T13:07:07;1.00;;;0.83;;
6642;SDS011;3357;48.050;7.800;2023-04-24T13:09:34;0.83;;;0.77;;
6642;SDS011;3357;48.050;7.800;2023-04-24T13:11:59;2.83;;;1.63;;
6642;SDS011;3357;48.050;7.800;2023-04-24T13:14:25;1.23;;;0.73;;
6642;SDS011;3357;48.050;7.800;2023-04-24T13:16:51;1.00;;;0.70;;
6642;SDS011;3357;48.050;7.800;2023-04-24T13:19:16;1.77;;;0.70;;
6642;SDS011;3357;48.050;7.800;2023-04-24T13:21:41;2.13;;;0.70;;
6642;SDS011;3357;48.050;7.800;2023-04-24T13:24:07;0.90;;;0.70;;
6642;SDS011;3357;48.050;7.800;2023-04-24T13:26:32;0.60;;;0.60;;
6642;SDS011;3357;48.050;7.800;2023-04-24T13:28:58;3.73;;;0.80;;
6642;SDS011;3357;48.050;7.800;2023-04-24T13:31:23;1.43;;;0.80;;
6642;SDS011;3357;48.050;7.800;2023-04-24T13:33:48;1.00;;;0.90;;
6642;SDS011;3357;48.050;7.800;2023-04-24T13:36:14;3.70;;;0.93;;
6642;SDS011;3357;48.050;7.800;2023-04-24T13:38:39;1.93;;;0.90;;
6642;SDS011;3357;48.050;7.800;2023-04-24T13:41:04;1.60;;;0.90;;
6642;SDS011;3357;48.050;7.800;2023-04-24T13:43:29;2.40;;;0.80;;
6642;SDS011;3357;48.050;7.800;2023-04-24T13:45:55;0.77;;;0.70;;
6642;SDS011;3357;48.050;7.800;2023-04-24T13:48:20;1.37;;;0.73;;
6642;SDS011;3357;48.050;7.800;2023-04-24T13:50:46;2.23;;;0.73;;
6642;SDS011;3357;48.050;7.800;2023-04-24T13:53:13;1.97;;;1.03;;
6642;SDS011;3357;48.050;7.800;2023-04-24T13:55:38;0.87;;;0.70;;
6642;SDS011;3357;48.050;7.800;2023-04-24T13:58:04;3.23;;;0.93;;
6642;SDS011;3357;48.050;7.800;2023-04-24T14:00:29;3.07;;;0.77;;
6642;SDS011;3357;48.050;7.800;2023-04-24T14:02:55;0.90;;;0.90;;
6642;SDS011;3357;48.050;7.800;2023-04-24T14:05:21;2.20;;;0.90;;
6642;SDS011;3357;48.050;7.800;2023-04-24T14:07:47;0.80;;;0.80;;
6642;SDS011;3357;48.050;7.800;2023-04-24T14:10:12;6.03;;;1.07;;
6642;SDS011;3357;48.050;7.800;2023-04-24T14:12:37;1.80;;;1.00;;
6642;SDS011;3357;48.050;7.800;2023-04-24T14:15:03;1.73;;;0.97;;
6642;SDS011;3357;48.050;7.800;2023-04-24T14:17:29;2.30;;;1.00;;
6642;SDS011;3357;48.050;7.800;2023-04-24T14:19:55;2.40;;;1.07;;
6642;SDS011;3357;48.050;7.800;2023-04-24T14:22:21;1.20;;;0.80;;
6642;SDS011;3357;48.050;7.800;2023-04-24T14:24:47;1.37;;;1.07;;
6642;SDS011;3357;48.050;7.800;2023-04-24T14:27:12;2.30;;;0.80;;
6642;SDS011;3357;48.050;7.800;2023-04-24T14:29:37;0.80;;;0.80;;
6642;SDS011;3357;48.050;7.800;2023-04-24T14:32:03;2.00;;;0.77;;
6642;SDS011;3357;48.050;7.800;2023-04-24T14:34:28;1.53;;;0.90;;
6642;SDS011;3357;48.050;7.800;2023-04-24T14:36:53;0.70;;;0.70;;
6642;SDS011;3357;48.050;7.800;2023-04-24T14:39:19;0.80;;;0.80;;
6642;SDS011;3357;48.050;7.800;2023-04-24T14:41:45;0.73;;;0.73;;
6642;SDS011;3357;48.050;7.800;2023-04-24T14:44:10;3.33;;;0.67;;
6642;SDS011;3357;48.050;7.800;2023-04-24T14:46:35;1.07;;;0.80;;
6642;SDS011;3357;48.050;7.800;2023-04-24T14:49:01;1.33;;;0.90;;
6642;SDS011;3357;48.050;7.800;2023-04-24T14:51:26;3.27;;;0.70;;
6642;SDS011;3357;48.050;7.800;2023-04-24T14:53:52;2.00;;;0.90;;
6642;SDS011;3357;48.050;7.800;2023-04-24T14:56:17;0.97;;;0.73;;
6642;SDS011;3357;48.050;7.800;2023-04-24T14:58:42;1.17;;;0.80;;
6642;SDS011;3357;48.050;7.800;2023-04-24T15:01:07;0.90;;;0.73;;
6642;SDS011;3357;48.050;7.800;2023-04-24T15:03:33;0.80;;;0.80;;
6642;SDS011;3357;48.050;7.800;2023-04-24T15:05:58;0.80;;;0.80;;
6642;SDS011;3357;48.050;7.800;2023-04-24T15:08:23;1.40;;;0.80;;
6642;SDS011;3357;48.050;7.800;2023-04-24T15:10:49;0.70;;;0.70;;
6642;SDS011;3357;48.050;7.800;2023-04-24T15:13:14;1.10;;;0.80;;
6642;SDS011;3357;48.050;7.800;2023-04-24T15:15:39;1.07;;;0.60;;
6642;SDS011;3357;48.050;7.800;2023-04-24T15:18:05;1.47;;;0.80;;
6642;SDS011;3357;48.050;7.800;2023-04-24T15:20:33;1.17;;;0.90;;